createdAt,value
2019-06-07T00:02:47.313Z,14.50
2019-06-07T00:07:54.192Z,14.50
2019-06-07T00:13:00.689Z,14.50
2019-06-07T00:18:11.173Z,14.50
2019-06-07T00:23:22.115Z,14.50
2019-06-07T00:28:24.090Z,14.50
2019-06-07T00:33:30.856Z,14.40
2019-06-07T00:38:37.516Z,14.30
2019-06-07T00:43:44.179Z,14.10
2019-06-07T00:48:50.753Z,14.00
2019-06-07T00:53:57.404Z,14.00
2019-06-07T00:59:11.348Z,13.90
2019-06-07T01:04:13.121Z,14.00
2019-06-07T01:09:23.959Z,14.00
2019-06-07T01:14:29.058Z,14.00
2019-06-07T01:19:35.731Z,14.00
2019-06-07T01:24:42.404Z,13.90
2019-06-07T01:29:49.064Z,13.70
2019-06-07T01:34:55.684Z,13.60
2019-06-07T01:40:02.260Z,13.50
2019-06-07T01:45:10.436Z,13.40
2019-06-07T01:50:22.596Z,13.30
2019-06-07T01:55:32.062Z,13.20
2019-06-07T02:00:36.272Z,13.10
2019-06-07T02:05:42.910Z,13.10
2019-06-07T02:10:49.511Z,13.10
2019-06-07T02:15:56.046Z,13.10
2019-06-07T02:21:02.647Z,13.10
2019-06-07T02:26:09.252Z,13.00
2019-06-07T02:31:15.789Z,13.10
2019-06-07T02:36:25.489Z,13.20
2019-06-07T02:41:38.679Z,13.20
2019-06-07T02:46:46.599Z,13.30
2019-06-07T02:51:47.358Z,13.30
2019-06-07T02:56:58.660Z,13.40
2019-06-07T03:02:02.575Z,13.30
2019-06-07T03:07:12.246Z,13.30
2019-06-07T03:12:22.407Z,13.30
2019-06-07T03:17:40.884Z,13.30
2019-06-07T03:22:49.145Z,13.20
2019-06-07T03:27:55.866Z,13.30
2019-06-07T03:33:02.380Z,13.30
2019-06-07T03:38:09.030Z,13.30
2019-06-07T03:43:15.593Z,13.40
2019-06-07T03:48:22.176Z,13.50
2019-06-07T03:53:30.802Z,13.50
2019-06-07T03:58:49.071Z,13.50
2019-06-07T04:03:51.883Z,13.50
2019-06-07T04:08:54.881Z,13.60
2019-06-07T04:14:02.514Z,13.70
2019-06-07T04:19:09.173Z,13.90
2019-06-07T04:24:16.635Z,14.30
2019-06-07T04:29:33.087Z,15.60
2019-06-07T04:34:37.513Z,17.10
2019-06-07T04:39:44.927Z,18.30
2019-06-07T04:44:53.676Z,19.20
2019-06-07T04:50:03.086Z,19.80
2019-06-07T04:55:09.913Z,19.60
2019-06-07T05:00:48.682Z,19.50
2019-06-07T05:05:29.338Z,17.40
2019-06-07T05:10:38.182Z,16.40
2019-06-07T05:15:44.315Z,15.70
2019-06-07T05:20:51.036Z,15.70
2019-06-07T05:25:57.851Z,16.10
2019-06-07T05:31:06.191Z,16.00
2019-06-07T05:36:12.859Z,16.40
2019-06-07T05:41:19.516Z,16.60
2019-06-07T05:46:26.100Z,16.60
2019-06-07T05:51:32.751Z,16.70
2019-06-07T05:56:40.735Z,16.60
2019-06-07T06:02:00.149Z,16.80
2019-06-07T06:06:56.964Z,17.00
2019-06-07T06:12:04.578Z,17.20
2019-06-07T06:17:11.165Z,17.10
2019-06-07T06:22:17.798Z,17.10
2019-06-07T06:28:02.814Z,17.10
2019-06-07T06:32:42.928Z,17.10
2019-06-07T06:37:42.682Z,17.30
2019-06-07T06:42:50.596Z,17.60
2019-06-07T06:47:57.329Z,17.60
2019-06-07T06:53:03.926Z,17.50
2019-06-07T06:58:10.578Z,17.80
2019-06-07T07:08:26.457Z,17.90
2019-06-07T07:13:33.091Z,17.70
2019-06-07T07:18:39.618Z,17.50
2019-06-07T07:24:08.222Z,17.80
2019-06-07T07:28:57.314Z,18.00
2019-06-07T07:39:11.165Z,17.90
2019-06-07T07:44:17.852Z,18.00
2019-06-07T07:49:24.525Z,18.20
2019-06-07T07:54:31.247Z,18.20
2019-06-07T07:59:44.062Z,18.30
2019-06-07T08:05:16.684Z,18.40
2019-06-07T08:09:59.585Z,18.50
2019-06-07T08:15:03.782Z,18.40
2019-06-07T08:20:12.412Z,18.50
2019-06-07T08:25:19.494Z,18.30
2019-06-07T08:30:49.861Z,18.60
2019-06-07T08:36:05.814Z,18.60
2019-06-07T08:40:44.965Z,18.90
2019-06-07T08:45:58.400Z,19.30
2019-06-07T08:51:06.617Z,19.40
2019-06-07T08:56:10.779Z,19.50
2019-06-07T09:01:16.606Z,19.60
2019-06-07T09:11:31.546Z,20.50
2019-06-07T09:16:38.215Z,20.90
2019-06-07T09:21:44.913Z,21.20
2019-06-07T09:26:51.575Z,21.60
2019-06-07T09:32:03.836Z,20.90
2019-06-07T09:37:54.455Z,21.80
2019-06-07T09:42:14.989Z,21.90
2019-06-07T09:47:31.886Z,21.70
2019-06-07T09:52:29.961Z,21.20
2019-06-07T09:57:36.627Z,21.30
2019-06-07T10:02:43.232Z,21.60
2019-06-07T10:08:02.461Z,22.20
2019-06-07T10:12:59.547Z,22.50
2019-06-07T10:18:07.083Z,22.90
2019-06-07T10:23:13.817Z,22.60
2019-06-07T10:28:20.622Z,23.10
2019-06-07T10:33:27.280Z,23.30
2019-06-07T10:38:33.823Z,23.30
2019-06-07T10:43:40.322Z,23.30
2019-06-07T10:48:46.890Z,23.70
2019-06-07T10:53:53.536Z,23.70
2019-06-07T10:59:00.092Z,24.20
2019-06-07T11:04:07.775Z,23.90
2019-06-07T11:09:14.584Z,24.60
2019-06-07T11:14:21.086Z,25.00
2019-06-07T11:19:27.674Z,24.70
2019-06-07T11:24:34.163Z,24.90
2019-06-07T11:29:41.684Z,24.80
2019-06-07T11:34:48.409Z,24.40
2019-06-07T11:39:55.180Z,24.30
2019-06-07T11:45:01.922Z,24.60
2019-06-07T11:50:31.978Z,25.10
2019-06-07T11:55:41.508Z,24.70
2019-06-07T12:00:48.184Z,25.30
2019-06-07T12:05:55.199Z,25.50
2019-06-07T12:11:02.004Z,25.50
2019-06-07T12:16:09.123Z,25.70
2019-06-07T12:21:15.941Z,25.80
2019-06-07T12:26:22.678Z,25.80
2019-06-07T12:31:29.362Z,25.70
2019-06-07T12:36:36.099Z,25.40
2019-06-07T12:41:42.746Z,25.60
2019-06-07T12:46:49.390Z,25.90
2019-06-07T12:51:56.127Z,26.10
2019-06-07T12:57:02.741Z,26.30
2019-06-07T13:02:09.437Z,26.10
2019-06-07T13:07:17.880Z,26.30
2019-06-07T13:12:24.862Z,26.40
2019-06-07T13:17:31.539Z,26.90
2019-06-07T13:22:38.367Z,27.40
2019-06-07T13:27:45.103Z,27.60
2019-06-07T13:32:51.697Z,27.90
2019-06-07T13:37:59.668Z,27.70
2019-06-07T13:43:07.712Z,27.80
2019-06-07T13:48:14.318Z,27.80
2019-06-07T13:53:22.725Z,27.10
2019-06-07T13:58:29.453Z,26.50
2019-06-07T14:03:36.080Z,26.70
2019-06-07T14:08:43.733Z,26.50
2019-06-07T14:13:50.425Z,27.20
2019-06-07T14:18:57.079Z,27.30
2019-06-07T14:24:03.743Z,28.00
2019-06-07T14:29:10.488Z,28.00
2019-06-07T14:34:17.104Z,28.10
2019-06-07T14:39:24.933Z,27.80
2019-06-07T14:44:31.766Z,28.00
2019-06-07T14:49:38.499Z,27.20
2019-06-07T14:54:45.114Z,27.50
2019-06-07T14:59:51.909Z,26.90
2019-06-07T15:04:59.037Z,26.70
2019-06-07T15:10:07.521Z,26.70
2019-06-07T15:15:14.465Z,26.80
2019-06-07T15:20:21.325Z,26.80
2019-06-07T15:25:29.164Z,26.70
2019-06-07T15:30:35.884Z,27.00
2019-06-07T15:35:42.428Z,26.80
2019-06-07T15:40:49.100Z,26.70
2019-06-07T15:45:55.597Z,26.70
2019-06-07T15:51:02.067Z,26.80
2019-06-07T15:56:09.002Z,26.70
2019-06-07T16:01:15.634Z,26.70
2019-06-07T16:06:22.281Z,26.50
2019-06-07T16:11:29.092Z,26.70
2019-06-07T16:16:37.039Z,26.80
2019-06-07T16:21:43.942Z,26.90
2019-06-07T16:26:50.583Z,27.10
2019-06-07T16:31:57.126Z,26.80
2019-06-07T16:37:03.682Z,26.80
2019-06-07T16:42:10.477Z,26.60
2019-06-07T16:47:17.176Z,26.90
2019-06-07T16:52:23.885Z,26.90
2019-06-07T16:57:30.495Z,26.80
2019-06-07T17:02:38.060Z,26.40
2019-06-07T17:07:46.730Z,26.70
2019-06-07T17:12:53.261Z,26.30
2019-06-07T17:17:59.963Z,25.90
2019-06-07T17:23:06.645Z,25.40
2019-06-07T17:28:13.358Z,25.30
2019-06-07T17:33:20.024Z,25.00
2019-06-07T17:38:26.775Z,25.00
2019-06-07T17:43:48.469Z,24.20
2019-06-07T17:48:41.988Z,24.10
2019-06-07T17:53:49.926Z,24.00
2019-06-07T17:58:56.768Z,23.80
2019-06-07T18:04:04.110Z,23.50
2019-06-07T18:09:14.070Z,23.30
2019-06-07T18:14:19.955Z,23.20
2019-06-07T18:19:26.676Z,22.90
2019-06-07T18:24:33.490Z,22.70
2019-06-07T18:29:40.124Z,22.50
2019-06-07T18:34:46.989Z,22.30
2019-06-07T18:39:55.216Z,22.20
2019-06-07T18:45:01.912Z,22.00
2019-06-07T18:50:09.946Z,21.90
2019-06-07T18:55:17.492Z,21.80
2019-06-07T19:00:25.282Z,21.70
2019-06-07T19:05:31.913Z,21.60
2019-06-07T19:10:38.664Z,21.50
2019-06-07T19:15:45.392Z,21.40
2019-06-07T19:20:52.498Z,21.20
2019-06-07T19:26:00.700Z,21.00
2019-06-07T19:31:07.395Z,20.80
2019-06-07T19:36:14.109Z,20.70
2019-06-07T19:41:20.846Z,20.50
2019-06-07T19:46:27.644Z,20.40
2019-06-07T19:51:36.084Z,20.10
2019-06-07T19:56:42.708Z,19.90
2019-06-07T20:01:49.776Z,19.70
2019-06-07T20:06:56.522Z,19.50
2019-06-07T20:12:03.234Z,19.20
2019-06-07T20:17:09.917Z,19.00
2019-06-07T20:22:16.454Z,18.70
2019-06-07T20:27:23.145Z,18.60
2019-06-07T20:32:29.720Z,18.50
2019-06-07T20:37:36.362Z,18.30
2019-06-07T20:42:43.013Z,18.20
2019-06-07T20:47:49.665Z,18.20
2019-06-07T20:52:56.255Z,18.10
2019-06-07T20:58:03.714Z,18.00
2019-06-07T21:03:11.194Z,17.90
2019-06-07T21:08:17.957Z,17.90
2019-06-07T21:13:24.543Z,17.90
2019-06-07T21:18:31.205Z,18.10
2019-06-07T21:23:37.830Z,18.00
2019-06-07T21:28:44.536Z,17.80
2019-06-07T21:33:51.167Z,17.90
2019-06-07T21:38:57.841Z,17.80
2019-06-07T21:44:06.113Z,17.80
2019-06-07T21:49:12.949Z,17.80
2019-06-07T21:54:19.621Z,17.70
2019-06-07T21:59:26.226Z,17.60
2019-06-07T22:04:32.830Z,17.40
2019-06-07T22:09:39.579Z,17.30
2019-06-07T22:14:46.062Z,17.30
2019-06-07T22:19:52.964Z,17.30
2019-06-07T22:24:59.532Z,17.20
2019-06-07T22:30:06.732Z,17.20
2019-06-07T22:35:13.567Z,17.20
2019-06-07T22:40:20.189Z,17.20
2019-06-07T22:45:26.845Z,17.30
2019-06-07T22:50:33.434Z,17.30
2019-06-07T22:55:40.004Z,17.40
2019-06-07T23:00:46.468Z,17.50
2019-06-07T23:05:53.115Z,17.50
2019-06-07T23:10:59.684Z,17.70
2019-06-07T23:16:06.602Z,17.60
2019-06-07T23:21:13.781Z,17.60
2019-06-07T23:26:20.702Z,17.50
2019-06-07T23:31:27.207Z,17.30
2019-06-07T23:36:33.687Z,17.10
2019-06-07T23:41:40.521Z,16.90
2019-06-07T23:46:47.151Z,16.80
2019-06-07T23:51:53.676Z,16.70
2019-06-07T23:57:00.148Z,16.60
